Pinega, Russia
Current Conditions -  °F | °C
As of 3:00 AM on Friday 28 Nov 2014 (Local Time) from ULAA Reporting Station
Overcast Overcast  
Wind Chill: 26°   Ceiling: 600
Heat Index: 32°   Visibility: 6mi
Dew Point: 32°   Wind: 7mph
Humidity: 100%   Direction: 280°W
Pressure: 30.33"   Gusts: 13mph
Location:  64.7°N, 43.38°E
Report Text: ULAA 280000Z 28003G06MPS 250V330 9999 OVC006CB M00/M00 Q1027 TEMPO 0300 FZFG BKN002 RMK QBB190 QFE769/1025 SC042
Loading
Personal Weather Stations






























Interactive Weather Map New forecast layout! Learn more

10-Day Weather Forecast

Advertisements
Track Severe Weather on mobile